sensor_id;sensor_type;location;lat;lon;timestamp;P1;durP1;ratioP1;P2;durP2;ratioP2
4182;SDS011;2105;52.300;9.182;2023-08-21T00:00:08;7.87;;;7.27;;
4182;SDS011;2105;52.300;9.182;2023-08-21T00:02:38;9.70;;;6.93;;
4182;SDS011;2105;52.300;9.182;2023-08-21T00:05:04;7.17;;;6.27;;
4182;SDS011;2105;52.300;9.182;2023-08-21T00:07:32;8.00;;;6.30;;
4182;SDS011;2105;52.300;9.182;2023-08-21T00:09:58;8.17;;;5.80;;
4182;SDS011;2105;52.300;9.182;2023-08-21T00:12:25;6.63;;;6.00;;
4182;SDS011;2105;52.300;9.182;2023-08-21T00:14:52;8.73;;;5.73;;
4182;SDS011;2105;52.300;9.182;2023-08-21T00:17:20;9.50;;;6.17;;
4182;SDS011;2105;52.300;9.182;2023-08-21T00:19:46;7.87;;;7.07;;
4182;SDS011;2105;52.300;9.182;2023-08-21T00:22:13;7.03;;;6.40;;
4182;SDS011;2105;52.300;9.182;2023-08-21T00:24:40;6.80;;;6.30;;
4182;SDS011;2105;52.300;9.182;2023-08-21T00:27:06;11.30;;;6.70;;
4182;SDS011;2105;52.300;9.182;2023-08-21T00:29:33;7.13;;;6.43;;
4182;SDS011;2105;52.300;9.182;2023-08-21T00:32:00;7.00;;;6.47;;
4182;SDS011;2105;52.300;9.182;2023-08-21T00:34:28;8.60;;;6.40;;
4182;SDS011;2105;52.300;9.182;2023-08-21T00:36:55;8.23;;;7.00;;
4182;SDS011;2105;52.300;9.182;2023-08-21T00:39:21;13.03;;;7.20;;
4182;SDS011;2105;52.300;9.182;2023-08-21T00:41:48;7.97;;;7.40;;
4182;SDS011;2105;52.300;9.182;2023-08-21T00:44:15;8.63;;;7.60;;
4182;SDS011;2105;52.300;9.182;2023-08-21T00:46:41;9.20;;;8.07;;
4182;SDS011;2105;52.300;9.182;2023-08-21T00:49:08;8.60;;;7.80;;
4182;SDS011;2105;52.300;9.182;2023-08-21T00:51:37;9.00;;;8.03;;
4182;SDS011;2105;52.300;9.182;2023-08-21T00:54:04;10.00;;;7.90;;
4182;SDS011;2105;52.300;9.182;2023-08-21T00:56:31;9.47;;;8.57;;
4182;SDS011;2105;52.300;9.182;2023-08-21T00:58:57;9.40;;;8.60;;
4182;SDS011;2105;52.300;9.182;2023-08-21T01:01:24;9.80;;;8.90;;
4182;SDS011;2105;52.300;9.182;2023-08-21T01:03:51;9.13;;;8.43;;
4182;SDS011;2105;52.300;9.182;2023-08-21T01:06:18;12.10;;;9.30;;
4182;SDS011;2105;52.300;9.182;2023-08-21T01:08:49;9.27;;;8.60;;
4182;SDS011;2105;52.300;9.182;2023-08-21T01:11:25;8.90;;;8.30;;
4182;SDS011;2105;52.300;9.182;2023-08-21T01:13:59;10.40;;;8.70;;
4182;SDS011;2105;52.300;9.182;2023-08-21T01:16:37;9.37;;;8.40;;
4182;SDS011;2105;52.300;9.182;2023-08-21T01:19:06;8.60;;;8.00;;
4182;SDS011;2105;52.300;9.182;2023-08-21T01:21:40;9.93;;;9.00;;
4182;SDS011;2105;52.300;9.182;2023-08-21T01:24:09;8.83;;;8.03;;
4182;SDS011;2105;52.300;9.182;2023-08-21T01:26:35;7.97;;;7.47;;
4182;SDS011;2105;52.300;9.182;2023-08-21T01:29:02;8.60;;;8.00;;
4182;SDS011;2105;52.300;9.182;2023-08-21T01:31:30;8.57;;;7.87;;
4182;SDS011;2105;52.300;9.182;2023-08-21T01:34:03;7.93;;;7.33;;
4182;SDS011;2105;52.300;9.182;2023-08-21T01:36:32;9.00;;;8.30;;
4182;SDS011;2105;52.300;9.182;2023-08-21T01:38:59;8.67;;;7.90;;
4182;SDS011;2105;52.300;9.182;2023-08-21T01:41:28;9.27;;;8.50;;
4182;SDS011;2105;52.300;9.182;2023-08-21T01:43:55;9.77;;;8.93;;
4182;SDS011;2105;52.300;9.182;2023-08-21T01:46:23;10.07;;;9.47;;
4182;SDS011;2105;52.300;9.182;2023-08-21T01:48:49;10.07;;;9.30;;
4182;SDS011;2105;52.300;9.182;2023-08-21T01:51:16;9.87;;;9.10;;
4182;SDS011;2105;52.300;9.182;2023-08-21T01:53:43;10.13;;;9.43;;
4182;SDS011;2105;52.300;9.182;2023-08-21T01:56:09;9.57;;;8.67;;
4182;SDS011;2105;52.300;9.182;2023-08-21T01:58:37;9.97;;;8.23;;
4182;SDS011;2105;52.300;9.182;2023-08-21T02:01:04;9.00;;;7.47;;
4182;SDS011;2105;52.300;9.182;2023-08-21T02:03:31;7.90;;;7.40;;
4182;SDS011;2105;52.300;9.182;2023-08-21T02:05:57;8.47;;;6.90;;
4182;SDS011;2105;52.300;9.182;2023-08-21T02:08:26;8.63;;;6.90;;
4182;SDS011;2105;52.300;9.182;2023-08-21T02:10:56;7.27;;;6.67;;
4182;SDS011;2105;52.300;9.182;2023-08-21T02:13:23;10.37;;;7.57;;
4182;SDS011;2105;52.300;9.182;2023-08-21T02:15:51;10.77;;;7.70;;
4182;SDS011;2105;52.300;9.182;2023-08-21T02:18:18;8.40;;;7.33;;
4182;SDS011;2105;52.300;9.182;2023-08-21T02:20:44;8.90;;;8.10;;
4182;SDS011;2105;52.300;9.182;2023-08-21T02:23:14;10.60;;;8.40;;
4182;SDS011;2105;52.300;9.182;2023-08-21T02:25:41;9.00;;;8.30;;
4182;SDS011;2105;52.300;9.182;2023-08-21T02:28:08;9.00;;;8.40;;
4182;SDS011;2105;52.300;9.182;2023-08-21T02:30:34;9.33;;;8.60;;
4182;SDS011;2105;52.300;9.182;2023-08-21T02:33:03;9.47;;;8.57;;
4182;SDS011;2105;52.300;9.182;2023-08-21T02:35:30;9.40;;;8.70;;
4182;SDS011;2105;52.300;9.182;2023-08-21T02:37:56;9.23;;;8.50;;
4182;SDS011;2105;52.300;9.182;2023-08-21T02:40:23;9.40;;;8.70;;
4182;SDS011;2105;52.300;9.182;2023-08-21T02:42:50;8.73;;;8.13;;
4182;SDS011;2105;52.300;9.182;2023-08-21T02:45:16;9.70;;;9.00;;
4182;SDS011;2105;52.300;9.182;2023-08-21T02:47:44;8.80;;;8.00;;
4182;SDS011;2105;52.300;9.182;2023-08-21T02:50:12;8.57;;;7.77;;
4182;SDS011;2105;52.300;9.182;2023-08-21T02:52:39;8.40;;;7.77;;
4182;SDS011;2105;52.300;9.182;2023-08-21T02:55:06;8.77;;;7.87;;
4182;SDS011;2105;52.300;9.182;2023-08-21T02:57:33;8.10;;;7.30;;
4182;SDS011;2105;52.300;9.182;2023-08-21T03:00:00;10.10;;;8.07;;
4182;SDS011;2105;52.300;9.182;2023-08-21T03:02:27;8.60;;;7.90;;
4182;SDS011;2105;52.300;9.182;2023-08-21T03:04:54;9.37;;;7.63;;
4182;SDS011;2105;52.300;9.182;2023-08-21T03:07:22;12.13;;;8.27;;
4182;SDS011;2105;52.300;9.182;2023-08-21T03:09:49;10.00;;;9.00;;
4182;SDS011;2105;52.300;9.182;2023-08-21T03:12:16;8.90;;;8.30;;
4182;SDS011;2105;52.300;9.182;2023-08-21T03:14:43;9.50;;;8.50;;
4182;SDS011;2105;52.300;9.182;2023-08-21T03:17:10;9.30;;;8.10;;
4182;SDS011;2105;52.300;9.182;2023-08-21T03:19:36;9.97;;;8.20;;
4182;SDS011;2105;52.300;9.182;2023-08-21T03:22:03;9.10;;;8.40;;
4182;SDS011;2105;52.300;9.182;2023-08-21T03:24:31;9.70;;;8.87;;
4182;SDS011;2105;52.300;9.182;2023-08-21T03:26:58;16.50;;;8.70;;
4182;SDS011;2105;52.300;9.182;2023-08-21T03:29:25;9.90;;;9.20;;
4182;SDS011;2105;52.300;9.182;2023-08-21T03:31:52;9.27;;;8.50;;
4182;SDS011;2105;52.300;9.182;2023-08-21T03:34:19;9.60;;;8.80;;
4182;SDS011;2105;52.300;9.182;2023-08-21T03:36:46;8.90;;;8.30;;
4182;SDS011;2105;52.300;9.182;2023-08-21T03:39:13;9.33;;;8.37;;
4182;SDS011;2105;52.300;9.182;2023-08-21T03:41:41;8.93;;;8.40;;
4182;SDS011;2105;52.300;9.182;2023-08-21T03:44:08;9.07;;;8.37;;
4182;SDS011;2105;52.300;9.182;2023-08-21T03:46:35;13.60;;;8.23;;
4182;SDS011;2105;52.300;9.182;2023-08-21T03:49:01;10.03;;;8.70;;
4182;SDS011;2105;52.300;9.182;2023-08-21T03:51:28;12.37;;;8.50;;
4182;SDS011;2105;52.300;9.182;2023-08-21T03:53:55;9.03;;;7.90;;
4182;SDS011;2105;52.300;9.182;2023-08-21T03:56:22;9.37;;;8.53;;
4182;SDS011;2105;52.300;9.182;2023-08-21T03:58:51;14.93;;;8.43;;
4182;SDS011;2105;52.300;9.182;2023-08-21T04:01:18;9.23;;;8.43;;
4182;SDS011;2105;52.300;9.182;2023-08-21T04:03:44;9.77;;;8.77;;
4182;SDS011;2105;52.300;9.182;2023-08-21T04:06:11;9.37;;;8.47;;
4182;SDS011;2105;52.300;9.182;2023-08-21T04:08:38;8.87;;;7.83;;
4182;SDS011;2105;52.300;9.182;2023-08-21T04:11:05;9.63;;;8.77;;
4182;SDS011;2105;52.300;9.182;2023-08-21T04:13:32;8.97;;;8.10;;
4182;SDS011;2105;52.300;9.182;2023-08-21T04:16:00;9.73;;;8.87;;
4182;SDS011;2105;52.300;9.182;2023-08-21T04:18:27;11.93;;;8.77;;
4182;SDS011;2105;52.300;9.182;2023-08-21T04:20:54;9.50;;;8.50;;
4182;SDS011;2105;52.300;9.182;2023-08-21T04:23:20;9.33;;;8.30;;
4182;SDS011;2105;52.300;9.182;2023-08-21T04:25:47;9.13;;;8.27;;
4182;SDS011;2105;52.300;9.182;2023-08-21T04:28:14;9.83;;;8.30;;
4182;SDS011;2105;52.300;9.182;2023-08-21T04:30:41;8.83;;;8.13;;
4182;SDS011;2105;52.300;9.182;2023-08-21T04:33:09;9.03;;;8.30;;
4182;SDS011;2105;52.300;9.182;2023-08-21T04:38:03;9.10;;;8.30;;
4182;SDS011;2105;52.300;9.182;2023-08-21T04:40:30;9.70;;;8.77;;
4182;SDS011;2105;52.300;9.182;2023-08-21T04:42:57;11.97;;;10.37;;
4182;SDS011;2105;52.300;9.182;2023-08-21T04:45:24;11.07;;;10.13;;
4182;SDS011;2105;52.300;9.182;2023-08-21T04:47:50;11.90;;;10.90;;
4182;SDS011;2105;52.300;9.182;2023-08-21T04:50:18;11.03;;;10.00;;
4182;SDS011;2105;52.300;9.182;2023-08-21T04:52:45;11.47;;;10.37;;
4182;SDS011;2105;52.300;9.182;2023-08-21T04:55:14;11.10;;;10.20;;
4182;SDS011;2105;52.300;9.182;2023-08-21T04:57:40;11.83;;;9.70;;
4182;SDS011;2105;52.300;9.182;2023-08-21T05:00:08;10.17;;;9.30;;
4182;SDS011;2105;52.300;9.182;2023-08-21T05:02:35;10.10;;;9.20;;
4182;SDS011;2105;52.300;9.182;2023-08-21T05:05:02;14.60;;;9.47;;
4182;SDS011;2105;52.300;9.182;2023-08-21T05:07:31;10.07;;;9.07;;
4182;SDS011;2105;52.300;9.182;2023-08-21T05:09:58;10.50;;;9.50;;
4182;SDS011;2105;52.300;9.182;2023-08-21T05:12:25;16.43;;;9.17;;
4182;SDS011;2105;52.300;9.182;2023-08-21T05:14:52;9.80;;;8.80;;
4182;SDS011;2105;52.300;9.182;2023-08-21T05:17:19;9.20;;;8.30;;
4182;SDS011;2105;52.300;9.182;2023-08-21T05:19:46;19.67;;;9.50;;
4182;SDS011;2105;52.300;9.182;2023-08-21T05:22:13;9.40;;;8.63;;
4182;SDS011;2105;52.300;9.182;2023-08-21T05:24:41;9.37;;;8.47;;
4182;SDS011;2105;52.300;9.182;2023-08-21T05:27:08;10.00;;;8.90;;
4182;SDS011;2105;52.300;9.182;2023-08-21T05:29:34;10.33;;;9.27;;
4182;SDS011;2105;52.300;9.182;2023-08-21T05:32:01;9.93;;;9.03;;
4182;SDS011;2105;52.300;9.182;2023-08-21T05:34:28;9.97;;;9.10;;
4182;SDS011;2105;52.300;9.182;2023-08-21T05:36:55;14.10;;;10.00;;
4182;SDS011;2105;52.300;9.182;2023-08-21T05:39:22;12.07;;;9.90;;
4182;SDS011;2105;52.300;9.182;2023-08-21T05:41:50;10.47;;;9.70;;
4182;SDS011;2105;52.300;9.182;2023-08-21T05:44:17;10.47;;;9.47;;
4182;SDS011;2105;52.300;9.182;2023-08-21T05:46:44;10.50;;;9.40;;
4182;SDS011;2105;52.300;9.182;2023-08-21T05:49:11;10.13;;;9.30;;
4182;SDS011;2105;52.300;9.182;2023-08-21T05:51:37;10.67;;;9.50;;
4182;SDS011;2105;52.300;9.182;2023-08-21T05:54:04;11.27;;;10.20;;
4182;SDS011;2105;52.300;9.182;2023-08-21T05:56:31;11.33;;;10.27;;
4182;SDS011;2105;52.300;9.182;2023-08-21T05:58:59;12.70;;;11.00;;
4182;SDS011;2105;52.300;9.182;2023-08-21T06:01:26;12.07;;;10.80;;
4182;SDS011;2105;52.300;9.182;2023-08-21T06:03:52;12.90;;;10.63;;
4182;SDS011;2105;52.300;9.182;2023-08-21T06:06:19;11.50;;;10.50;;
4182;SDS011;2105;52.300;9.182;2023-08-21T06:08:46;12.03;;;11.13;;
4182;SDS011;2105;52.300;9.182;2023-08-21T06:11:13;12.87;;;11.13;;
4182;SDS011;2105;52.300;9.182;2023-08-21T06:13:40;11.70;;;10.90;;
4182;SDS011;2105;52.300;9.182;2023-08-21T06:16:08;21.53;;;12.10;;
4182;SDS011;2105;52.300;9.182;2023-08-21T06:18:35;13.93;;;12.60;;
4182;SDS011;2105;52.300;9.182;2023-08-21T06:21:02;12.53;;;11.40;;
4182;SDS011;2105;52.300;9.182;2023-08-21T06:23:28;12.63;;;11.50;;
4182;SDS011;2105;52.300;9.182;2023-08-21T06:25:55;15.10;;;11.60;;
4182;SDS011;2105;52.300;9.182;2023-08-21T06:28:22;12.50;;;11.50;;
4182;SDS011;2105;52.300;9.182;2023-08-21T06:30:54;14.53;;;11.60;;
4182;SDS011;2105;52.300;9.182;2023-08-21T06:33:24;13.43;;;11.57;;
4182;SDS011;2105;52.300;9.182;2023-08-21T06:35:51;13.00;;;11.97;;
4182;SDS011;2105;52.300;9.182;2023-08-21T06:38:17;13.40;;;12.20;;
4182;SDS011;2105;52.300;9.182;2023-08-21T06:40:44;17.50;;;13.80;;
4182;SDS011;2105;52.300;9.182;2023-08-21T06:43:11;18.80;;;12.77;;
4182;SDS011;2105;52.300;9.182;2023-08-21T06:45:38;16.30;;;14.70;;
4182;SDS011;2105;52.300;9.182;2023-08-21T06:48:05;15.00;;;13.37;;
4182;SDS011;2105;52.300;9.182;2023-08-21T06:50:33;16.03;;;14.37;;
4182;SDS011;2105;52.300;9.182;2023-08-21T06:53:00;14.60;;;13.30;;
4182;SDS011;2105;52.300;9.182;2023-08-21T06:55:26;18.33;;;13.70;;
4182;SDS011;2105;52.300;9.182;2023-08-21T06:57:53;15.40;;;14.00;;
4182;SDS011;2105;52.300;9.182;2023-08-21T07:00:20;18.47;;;14.30;;
4182;SDS011;2105;52.300;9.182;2023-08-21T07:02:46;15.67;;;14.27;;
4182;SDS011;2105;52.300;9.182;2023-08-21T07:05:13;16.83;;;15.50;;
4182;SDS011;2105;52.300;9.182;2023-08-21T07:07:41;15.57;;;14.17;;
4182;SDS011;2105;52.300;9.182;2023-08-21T07:10:08;17.23;;;15.80;;
4182;SDS011;2105;52.300;9.182;2023-08-21T07:12:35;13.97;;;12.77;;
4182;SDS011;2105;52.300;9.182;2023-08-21T07:15:02;14.90;;;13.37;;
4182;SDS011;2105;52.300;9.182;2023-08-21T07:17:29;15.67;;;14.13;;
4182;SDS011;2105;52.300;9.182;2023-08-21T07:19:55;15.00;;;13.60;;
4182;SDS011;2105;52.300;9.182;2023-08-21T07:22:22;15.63;;;13.90;;
4182;SDS011;2105;52.300;9.182;2023-08-21T07:24:50;15.17;;;13.70;;
4182;SDS011;2105;52.300;9.182;2023-08-21T07:27:17;16.77;;;13.80;;
4182;SDS011;2105;52.300;9.182;2023-08-21T07:29:44;17.97;;;14.13;;
4182;SDS011;2105;52.300;9.182;2023-08-21T07:32:11;18.43;;;14.20;;
4182;SDS011;2105;52.300;9.182;2023-08-21T07:34:38;15.87;;;14.27;;
4182;SDS011;2105;52.300;9.182;2023-08-21T07:37:07;16.70;;;14.53;;
4182;SDS011;2105;52.300;9.182;2023-08-21T07:39:33;16.30;;;14.60;;
4182;SDS011;2105;52.300;9.182;2023-08-21T07:42:01;16.57;;;14.73;;
4182;SDS011;2105;52.300;9.182;2023-08-21T07:44:28;15.17;;;13.73;;
4182;SDS011;2105;52.300;9.182;2023-08-21T07:46:55;15.07;;;13.73;;
4182;SDS011;2105;52.300;9.182;2023-08-21T07:49:22;15.47;;;14.00;;
4182;SDS011;2105;52.300;9.182;2023-08-21T07:51:48;15.83;;;14.43;;
4182;SDS011;2105;52.300;9.182;2023-08-21T07:54:15;15.33;;;13.90;;
4182;SDS011;2105;52.300;9.182;2023-08-21T07:56:42;15.30;;;13.97;;
4182;SDS011;2105;52.300;9.182;2023-08-21T07:59:10;15.80;;;14.40;;
4182;SDS011;2105;52.300;9.182;2023-08-21T08:01:36;16.83;;;13.93;;
4182;SDS011;2105;52.300;9.182;2023-08-21T08:04:03;16.23;;;14.00;;
4182;SDS011;2105;52.300;9.182;2023-08-21T08:06:31;15.60;;;14.07;;
4182;SDS011;2105;52.300;9.182;2023-08-21T08:08:58;15.17;;;13.67;;
4182;SDS011;2105;52.300;9.182;2023-08-21T08:11:25;15.97;;;14.50;;
4182;SDS011;2105;52.300;9.182;2023-08-21T08:13:51;15.73;;;14.20;;
4182;SDS011;2105;52.300;9.182;2023-08-21T08:16:19;15.40;;;13.90;;
4182;SDS011;2105;52.300;9.182;2023-08-21T08:18:46;17.73;;;14.23;;
4182;SDS011;2105;52.300;9.182;2023-08-21T08:21:13;18.47;;;14.00;;
4182;SDS011;2105;52.300;9.182;2023-08-21T08:23:40;15.87;;;14.27;;
4182;SDS011;2105;52.300;9.182;2023-08-21T08:26:07;15.23;;;13.93;;
4182;SDS011;2105;52.300;9.182;2023-08-21T08:31:57;16.70;;;14.10;;
4182;SDS011;2105;52.300;9.182;2023-08-21T08:34:24;16.27;;;14.47;;
4182;SDS011;2105;52.300;9.182;2023-08-21T08:36:51;16.63;;;14.57;;
4182;SDS011;2105;52.300;9.182;2023-08-21T08:39:18;16.07;;;14.47;;
4182;SDS011;2105;52.300;9.182;2023-08-21T08:41:48;17.60;;;15.00;;
4182;SDS011;2105;52.300;9.182;2023-08-21T08:44:20;17.63;;;14.10;;
4182;SDS011;2105;52.300;9.182;2023-08-21T08:46:50;15.43;;;13.93;;
4182;SDS011;2105;52.300;9.182;2023-08-21T08:49:19;15.73;;;14.17;;
4182;SDS011;2105;52.300;9.182;2023-08-21T08:51:48;19.47;;;13.60;;
4182;SDS011;2105;52.300;9.182;2023-08-21T08:54:16;20.60;;;18.87;;
4182;SDS011;2105;52.300;9.182;2023-08-21T08:56:43;19.77;;;17.80;;
4182;SDS011;2105;52.300;9.182;2023-08-21T08:59:10;14.40;;;13.00;;
4182;SDS011;2105;52.300;9.182;2023-08-21T09:01:37;14.83;;;12.90;;
4182;SDS011;2105;52.300;9.182;2023-08-21T09:04:04;17.63;;;13.73;;
4182;SDS011;2105;52.300;9.182;2023-08-21T09:06:32;21.23;;;19.00;;
4182;SDS011;2105;52.300;9.182;2023-08-21T09:08:59;17.47;;;14.20;;
4182;SDS011;2105;52.300;9.182;2023-08-21T09:11:26;15.20;;;13.57;;
4182;SDS011;2105;52.300;9.182;2023-08-21T09:13:54;16.87;;;15.00;;
4182;SDS011;2105;52.300;9.182;2023-08-21T09:16:22;17.90;;;16.17;;
4182;SDS011;2105;52.300;9.182;2023-08-21T09:18:50;17.77;;;15.97;;
4182;SDS011;2105;52.300;9.182;2023-08-21T09:21:18;16.23;;;14.50;;
4182;SDS011;2105;52.300;9.182;2023-08-21T09:23:47;19.63;;;15.90;;
4182;SDS011;2105;52.300;9.182;2023-08-21T09:26:18;16.83;;;15.03;;
4182;SDS011;2105;52.300;9.182;2023-08-21T09:28:45;19.50;;;16.10;;
4182;SDS011;2105;52.300;9.182;2023-08-21T09:31:12;18.93;;;16.80;;
4182;SDS011;2105;52.300;9.182;2023-08-21T09:33:38;19.57;;;15.50;;
4182;SDS011;2105;52.300;9.182;2023-08-21T09:36:06;22.17;;;16.40;;
4182;SDS011;2105;52.300;9.182;2023-08-21T09:38:36;17.20;;;15.50;;
4182;SDS011;2105;52.300;9.182;2023-08-21T09:41:06;17.73;;;14.47;;
4182;SDS011;2105;52.300;9.182;2023-08-21T09:43:37;18.60;;;16.30;;
4182;SDS011;2105;52.300;9.182;2023-08-21T09:46:08;15.50;;;14.00;;
4182;SDS011;2105;52.300;9.182;2023-08-21T09:48:39;15.30;;;13.80;;
4182;SDS011;2105;52.300;9.182;2023-08-21T09:51:07;15.03;;;13.60;;
4182;SDS011;2105;52.300;9.182;2023-08-21T09:53:35;15.50;;;14.10;;
4182;SDS011;2105;52.300;9.182;2023-08-21T09:56:02;16.67;;;14.63;;
4182;SDS011;2105;52.300;9.182;2023-08-21T09:58:31;15.47;;;13.90;;
4182;SDS011;2105;52.300;9.182;2023-08-21T10:00:58;15.47;;;13.93;;
4182;SDS011;2105;52.300;9.182;2023-08-21T10:03:25;18.50;;;14.67;;
4182;SDS011;2105;52.300;9.182;2023-08-21T10:05:54;21.73;;;17.10;;
4182;SDS011;2105;52.300;9.182;2023-08-21T10:08:24;17.93;;;15.47;;
4182;SDS011;2105;52.300;9.182;2023-08-21T10:10:51;15.13;;;13.73;;
4182;SDS011;2105;52.300;9.182;2023-08-21T10:13:18;14.90;;;13.50;;
4182;SDS011;2105;52.300;9.182;2023-08-21T10:15:47;16.47;;;13.17;;
4182;SDS011;2105;52.300;9.182;2023-08-21T10:18:17;16.73;;;15.27;;
4182;SDS011;2105;52.300;9.182;2023-08-21T10:20:44;19.23;;;17.30;;
4182;SDS011;2105;52.300;9.182;2023-08-21T10:23:23;16.73;;;15.03;;
4182;SDS011;2105;52.300;9.182;2023-08-21T10:25:53;16.90;;;15.10;;
4182;SDS011;2105;52.300;9.182;2023-08-21T10:28:21;17.23;;;15.53;;
4182;SDS011;2105;52.300;9.182;2023-08-21T10:30:50;18.10;;;15.40;;
4182;SDS011;2105;52.300;9.182;2023-08-21T10:33:17;16.37;;;14.70;;
4182;SDS011;2105;52.300;9.182;2023-08-21T10:36:13;16.23;;;14.80;;
4182;SDS011;2105;52.300;9.182;2023-08-21T10:41:26;18.90;;;16.90;;
4182;SDS011;2105;52.300;9.182;2023-08-21T10:43:52;17.67;;;15.87;;
4182;SDS011;2105;52.300;9.182;2023-08-21T10:46:21;17.03;;;15.43;;
4182;SDS011;2105;52.300;9.182;2023-08-21T10:48:48;17.30;;;15.60;;
4182;SDS011;2105;52.300;9.182;2023-08-21T10:51:15;16.40;;;14.90;;
4182;SDS011;2105;52.300;9.182;2023-08-21T10:53:43;17.70;;;15.83;;
4182;SDS011;2105;52.300;9.182;2023-08-21T10:56:09;17.50;;;15.80;;
4182;SDS011;2105;52.300;9.182;2023-08-21T10:58:38;19.17;;;16.00;;
4182;SDS011;2105;52.300;9.182;2023-08-21T11:01:07;17.90;;;15.87;;
4182;SDS011;2105;52.300;9.182;2023-08-21T11:03:35;21.27;;;16.17;;
4182;SDS011;2105;52.300;9.182;2023-08-21T11:06:05;19.67;;;15.73;;
4182;SDS011;2105;52.300;9.182;2023-08-21T11:08:34;16.43;;;14.90;;
4182;SDS011;2105;52.300;9.182;2023-08-21T11:11:03;17.33;;;15.73;;
4182;SDS011;2105;52.300;9.182;2023-08-21T11:13:30;17.57;;;15.67;;
4182;SDS011;2105;52.300;9.182;2023-08-21T11:15:58;17.83;;;16.03;;
4182;SDS011;2105;52.300;9.182;2023-08-21T11:18:31;17.43;;;15.50;;
4182;SDS011;2105;52.300;9.182;2023-08-21T11:21:07;22.93;;;15.40;;
4182;SDS011;2105;52.300;9.182;2023-08-21T11:23:36;18.20;;;15.37;;
4182;SDS011;2105;52.300;9.182;2023-08-21T11:26:05;19.13;;;15.67;;
4182;SDS011;2105;52.300;9.182;2023-08-21T11:28:35;16.50;;;14.90;;
4182;SDS011;2105;52.300;9.182;2023-08-21T11:31:04;17.17;;;15.47;;
4182;SDS011;2105;52.300;9.182;2023-08-21T11:33:32;16.77;;;15.00;;
4182;SDS011;2105;52.300;9.182;2023-08-21T11:35:59;17.87;;;16.00;;
4182;SDS011;2105;52.300;9.182;2023-08-21T11:38:28;17.83;;;16.23;;
4182;SDS011;2105;52.300;9.182;2023-08-21T11:40:56;17.53;;;15.90;;
4182;SDS011;2105;52.300;9.182;2023-08-21T11:43:33;18.17;;;16.30;;
4182;SDS011;2105;52.300;9.182;2023-08-21T11:46:01;18.93;;;17.13;;
4182;SDS011;2105;52.300;9.182;2023-08-21T11:48:28;18.67;;;16.60;;
4182;SDS011;2105;52.300;9.182;2023-08-21T11:50:55;18.83;;;17.13;;
4182;SDS011;2105;52.300;9.182;2023-08-21T11:53:34;19.17;;;17.00;;
4182;SDS011;2105;52.300;9.182;2023-08-21T11:56:02;17.90;;;16.20;;
4182;SDS011;2105;52.300;9.182;2023-08-21T11:58:29;17.80;;;16.20;;
4182;SDS011;2105;52.300;9.182;2023-08-21T12:01:01;18.57;;;16.70;;
4182;SDS011;2105;52.300;9.182;2023-08-21T12:03:28;18.83;;;17.03;;
4182;SDS011;2105;52.300;9.182;2023-08-21T12:05:56;18.50;;;16.70;;
4182;SDS011;2105;52.300;9.182;2023-08-21T12:08:23;18.90;;;17.07;;
4182;SDS011;2105;52.300;9.182;2023-08-21T12:10:51;19.63;;;16.70;;
4182;SDS011;2105;52.300;9.182;2023-08-21T12:13:18;19.07;;;17.27;;
4182;SDS011;2105;52.300;9.182;2023-08-21T12:15:45;18.63;;;16.73;;
4182;SDS011;2105;52.300;9.182;2023-08-21T12:18:11;19.40;;;17.60;;
4182;SDS011;2105;52.300;9.182;2023-08-21T12:20:38;17.87;;;16.03;;
4182;SDS011;2105;52.300;9.182;2023-08-21T12:23:05;17.73;;;16.20;;
4182;SDS011;2105;52.300;9.182;2023-08-21T12:25:31;18.10;;;16.40;;
4182;SDS011;2105;52.300;9.182;2023-08-21T12:27:59;19.10;;;17.30;;
4182;SDS011;2105;52.300;9.182;2023-08-21T12:30:26;27.27;;;16.83;;
4182;SDS011;2105;52.300;9.182;2023-08-21T12:32:53;21.30;;;17.03;;
4182;SDS011;2105;52.300;9.182;2023-08-21T12:35:20;18.33;;;16.50;;
4182;SDS011;2105;52.300;9.182;2023-08-21T12:37:47;18.30;;;16.67;;
4182;SDS011;2105;52.300;9.182;2023-08-21T12:40:13;18.93;;;17.07;;
4182;SDS011;2105;52.300;9.182;2023-08-21T12:42:40;18.50;;;16.70;;
4182;SDS011;2105;52.300;9.182;2023-08-21T12:45:08;19.90;;;17.20;;
4182;SDS011;2105;52.300;9.182;2023-08-21T12:47:36;19.30;;;17.50;;
4182;SDS011;2105;52.300;9.182;2023-08-21T12:50:03;18.90;;;17.20;;
4182;SDS011;2105;52.300;9.182;2023-08-21T12:52:30;18.37;;;16.80;;
4182;SDS011;2105;52.300;9.182;2023-08-21T12:54:57;18.93;;;17.23;;
4182;SDS011;2105;52.300;9.182;2023-08-21T12:57:24;17.90;;;16.40;;
4182;SDS011;2105;52.300;9.182;2023-08-21T12:59:51;18.67;;;17.00;;
4182;SDS011;2105;52.300;9.182;2023-08-21T13:02:19;18.10;;;16.70;;
4182;SDS011;2105;52.300;9.182;2023-08-21T13:04:48;18.83;;;16.67;;
4182;SDS011;2105;52.300;9.182;2023-08-21T13:07:14;19.20;;;17.40;;
4182;SDS011;2105;52.300;9.182;2023-08-21T13:09:43;18.10;;;16.37;;
4182;SDS011;2105;52.300;9.182;2023-08-21T13:12:09;19.07;;;17.27;;
4182;SDS011;2105;52.300;9.182;2023-08-21T13:14:36;19.17;;;17.37;;
4182;SDS011;2105;52.300;9.182;2023-08-21T13:17:03;18.87;;;16.97;;
4182;SDS011;2105;52.300;9.182;2023-08-21T13:19:31;19.77;;;17.37;;
4182;SDS011;2105;52.300;9.182;2023-08-21T13:21:58;18.57;;;16.90;;
4182;SDS011;2105;52.300;9.182;2023-08-21T13:24:24;18.73;;;17.23;;
4182;SDS011;2105;52.300;9.182;2023-08-21T13:26:53;18.83;;;17.20;;
4182;SDS011;2105;52.300;9.182;2023-08-21T13:29:19;19.03;;;17.33;;
4182;SDS011;2105;52.300;9.182;2023-08-21T13:31:46;18.60;;;17.00;;
4182;SDS011;2105;52.300;9.182;2023-08-21T13:34:13;18.23;;;16.77;;
4182;SDS011;2105;52.300;9.182;2023-08-21T13:36:41;18.67;;;16.90;;
4182;SDS011;2105;52.300;9.182;2023-08-21T13:39:08;18.77;;;16.97;;
4182;SDS011;2105;52.300;9.182;2023-08-21T13:41:36;18.83;;;16.93;;
4182;SDS011;2105;52.300;9.182;2023-08-21T13:44:02;18.20;;;16.60;;
4182;SDS011;2105;52.300;9.182;2023-08-21T13:46:29;19.10;;;17.10;;
4182;SDS011;2105;52.300;9.182;2023-08-21T13:48:56;18.90;;;17.30;;
4182;SDS011;2105;52.300;9.182;2023-08-21T13:51:23;18.90;;;17.00;;
4182;SDS011;2105;52.300;9.182;2023-08-21T13:53:51;19.00;;;17.27;;
4182;SDS011;2105;52.300;9.182;2023-08-21T13:56:18;18.50;;;16.90;;
4182;SDS011;2105;52.300;9.182;2023-08-21T13:58:44;18.83;;;17.20;;
4182;SDS011;2105;52.300;9.182;2023-08-21T14:01:11;18.70;;;17.10;;
4182;SDS011;2105;52.300;9.182;2023-08-21T14:03:38;18.40;;;16.70;;
4182;SDS011;2105;52.300;9.182;2023-08-21T14:06:05;19.20;;;17.50;;
4182;SDS011;2105;52.300;9.182;2023-08-21T14:08:35;19.80;;;17.80;;
4182;SDS011;2105;52.300;9.182;2023-08-21T14:11:03;18.77;;;17.20;;
4182;SDS011;2105;52.300;9.182;2023-08-21T14:13:30;18.97;;;17.23;;
4182;SDS011;2105;52.300;9.182;2023-08-21T14:15:57;18.80;;;17.00;;
4182;SDS011;2105;52.300;9.182;2023-08-21T14:18:24;19.17;;;17.57;;
4182;SDS011;2105;52.300;9.182;2023-08-21T14:20:50;18.93;;;17.33;;
4182;SDS011;2105;52.300;9.182;2023-08-21T14:23:17;18.70;;;17.20;;
4182;SDS011;2105;52.300;9.182;2023-08-21T14:25:44;19.07;;;17.37;;
4182;SDS011;2105;52.300;9.182;2023-08-21T14:28:12;19.13;;;17.50;;
4182;SDS011;2105;52.300;9.182;2023-08-21T14:30:39;18.73;;;17.03;;
4182;SDS011;2105;52.300;9.182;2023-08-21T14:33:05;18.43;;;16.97;;
4182;SDS011;2105;52.300;9.182;2023-08-21T14:35:32;18.57;;;16.87;;
4182;SDS011;2105;52.300;9.182;2023-08-21T14:37:59;18.93;;;17.33;;
4182;SDS011;2105;52.300;9.182;2023-08-21T14:40:26;19.03;;;17.27;;
4182;SDS011;2105;52.300;9.182;2023-08-21T14:42:52;18.83;;;17.00;;
4182;SDS011;2105;52.300;9.182;2023-08-21T14:45:20;19.27;;;17.27;;
4182;SDS011;2105;52.300;9.182;2023-08-21T14:47:47;18.60;;;16.90;;
4182;SDS011;2105;52.300;9.182;2023-08-21T14:50:14;17.80;;;16.30;;
4182;SDS011;2105;52.300;9.182;2023-08-21T14:52:40;18.20;;;16.60;;
4182;SDS011;2105;52.300;9.182;2023-08-21T14:55:07;19.07;;;17.20;;
4182;SDS011;2105;52.300;9.182;2023-08-21T14:57:34;18.90;;;16.97;;
4182;SDS011;2105;52.300;9.182;2023-08-21T15:00:01;18.33;;;16.73;;
4182;SDS011;2105;52.300;9.182;2023-08-21T15:02:30;18.27;;;16.53;;
4182;SDS011;2105;52.300;9.182;2023-08-21T15:04:57;18.93;;;16.93;;